Time;durP1;ratioP1;P1;durP2;ratioP2;P2;SDS_P1;SDS_P2;PMS_P1;PMS_P2;Temp;Humidity;BMP_temperature;BMP_pressure;BME280_temperature;BME280_humidity;BME280_pressure;Samples;Min_cycle;Max_cycle;Signal;HPM_P1;HPM_P2
2023/05/19 00:00:59;;;;;;;5.10;2.10;;;16.80;52.90;;;;;;5039036;28;20457;-79
2023/05/19 00:03:26;;;;;;;3.23;2.00;;;16.80;53.00;;;;;;5021575;28;20501;-79
2023/05/19 00:05:54;;;;;;;5.20;2.07;;;16.80;53.00;;;;;;5038973;28;20479;-78
2023/05/19 00:08:23;;;;;;;2.40;2.10;;;16.80;53.00;;;;;;5025027;28;20563;-79
2023/05/19 00:10:51;;;;;;;3.70;1.90;;;16.70;53.00;;;;;;5039385;28;20441;-80
2023/05/19 00:13:19;;;;;;;3.23;2.00;;;16.70;53.20;;;;;;5039220;28;20615;-79
2023/05/19 00:15:47;;;;;;;5.83;2.10;;;16.70;53.30;;;;;;5038695;28;20433;-80
2023/05/19 00:18:15;;;;;;;4.97;1.80;;;16.60;53.40;;;;;;5035700;28;20449;-81
2023/05/19 00:20:42;;;;;;;3.47;1.90;;;16.60;53.50;;;;;;5036156;28;20453;-78
2023/05/19 00:23:10;;;;;;;4.50;1.90;;;16.60;53.70;;;;;;5036118;28;20531;-81
2023/05/19 00:25:37;;;;;;;3.30;1.80;;;16.50;53.80;;;;;;5016145;28;20497;-82
2023/05/19 00:28:04;;;;;;;3.53;1.97;;;16.50;53.60;;;;;;5034679;28;20732;-81
2023/05/19 00:30:32;;;;;;;4.17;2.23;;;16.50;53.70;;;;;;5035112;28;20481;-78
2023/05/19 00:32:59;;;;;;;2.43;1.97;;;16.40;53.60;;;;;;5018204;28;20459;-78
2023/05/19 00:35:26;;;;;;;3.03;1.80;;;16.40;53.80;;;;;;5035806;28;20456;-79
2023/05/19 00:37:53;;;;;;;3.37;2.33;;;16.40;53.80;;;;;;5036140;28;20508;-78
2023/05/19 00:40:20;;;;;;;3.90;2.20;;;16.30;53.70;;;;;;5035506;28;20977;-80
2023/05/19 00:42:47;;;;;;;3.70;2.13;;;16.30;53.80;;;;;;5034555;28;20473;-78
2023/05/19 00:45:14;;;;;;;2.60;1.93;;;16.30;53.90;;;;;;5034842;28;20485;-80
2023/05/19 00:47:42;;;;;;;5.27;2.60;;;16.30;54.00;;;;;;5035021;28;20566;-80
2023/05/19 00:50:10;;;;;;;4.53;2.07;;;16.30;54.00;;;;;;5035240;28;20472;-79
2023/05/19 00:52:38;;;;;;;3.27;1.80;;;16.30;54.00;;;;;;5035455;28;20825;-82
2023/05/19 00:55:06;;;;;;;2.57;2.00;;;16.30;53.90;;;;;;5035540;28;20527;-80
2023/05/19 00:57:33;;;;;;;4.43;2.10;;;16.20;53.80;;;;;;5034738;28;20465;-80
2023/05/19 01:00:01;;;;;;;5.53;1.90;;;16.20;53.80;;;;;;5035055;28;20537;-79
2023/05/19 01:02:29;;;;;;;5.33;2.13;;;16.20;53.90;;;;;;5035279;28;20465;-79
2023/05/19 01:04:59;;;;;;;3.90;1.97;;;16.20;53.80;;;;;;5035262;28;20506;-82
2023/05/19 01:07:26;;;;;;;4.67;2.37;;;16.20;53.80;;;;;;5035068;28;21001;-80
2023/05/19 01:09:53;;;;;;;2.93;2.17;;;16.20;53.90;;;;;;5034828;28;20556;-80
2023/05/19 01:12:20;;;;;;;3.70;2.00;;;16.20;53.90;;;;;;5035095;28;20461;-80
2023/05/19 01:14:47;;;;;;;4.27;2.03;;;16.20;53.80;;;;;;5034732;28;20453;-79
2023/05/19 01:17:21;;;;;;;3.87;2.07;;;16.20;53.80;;;;;;5034931;28;20491;-81
2023/05/19 01:20:05;;;;;;;5.83;2.20;;;16.20;54.20;;;;;;5035124;28;20924;-81
2023/05/19 01:22:53;;;;;;;6.30;2.37;;;16.10;54.40;;;;;;5034564;28;20953;-82
2023/05/19 01:26:04;;;;;;;4.97;2.57;;;16.10;54.90;;;;;;5017389;28;20539;-81
2023/05/19 01:29:08;;;;;;;3.93;1.87;;;16.00;55.20;;;;;;5034881;28;20448;-80
2023/05/19 01:31:38;;;;;;;4.23;2.20;;;16.00;55.40;;;;;;5035073;28;20866;-80
2023/05/19 01:34:07;;;;;;;4.63;2.63;;;15.90;55.30;;;;;;5034928;28;20541;-81
2023/05/19 01:36:35;;;;;;;3.33;2.13;;;15.90;55.70;;;;;;5034652;28;20998;-82
2023/05/19 01:39:02;;;;;;;3.30;2.10;;;15.90;55.70;;;;;;5034504;28;20885;-82
2023/05/19 01:41:31;;;;;;;4.43;2.40;;;15.90;55.70;;;;;;5034442;28;20465;-82
2023/05/19 01:43:58;;;;;;;3.87;2.27;;;15.80;55.70;;;;;;5034657;28;20902;-82
2023/05/19 01:46:25;;;;;;;3.77;2.03;;;15.80;56.10;;;;;;5034609;28;20485;-82
2023/05/19 01:48:54;;;;;;;2.90;2.10;;;15.70;56.20;;;;;;5035828;28;20459;-82
2023/05/19 01:51:21;;;;;;;2.63;2.10;;;15.70;56.40;;;;;;5036209;28;20487;-81
2023/05/19 01:53:48;;;;;;;5.10;2.57;;;15.60;56.40;;;;;;5035851;28;20445;-81
2023/05/19 01:56:21;;;;;;;5.27;2.50;;;15.60;56.70;;;;;;5034642;28;20953;-82
2023/05/19 01:58:53;;;;;;;6.03;2.27;;;15.60;56.80;;;;;;5035725;28;20819;-82
2023/05/19 02:01:29;;;;;;;3.37;1.93;;;15.50;56.70;;;;;;5035154;28;20483;-80
2023/05/19 02:04:17;;;;;;;3.37;2.17;;;15.50;57.00;;;;;;5034369;28;20467;-81
2023/05/19 02:06:52;;;;;;;2.97;2.10;;;15.40;57.30;;;;;;5033771;28;20499;-83
2023/05/19 02:09:26;;;;;;;4.40;2.20;;;15.40;57.20;;;;;;5034162;28;20472;-82
2023/05/19 02:11:55;;;;;;;3.43;2.37;;;15.40;57.30;;;;;;5033712;28;20847;-82
2023/05/19 02:14:29;;;;;;;3.97;2.40;;;15.40;57.40;;;;;;5033921;28;20465;-82
2023/05/19 02:16:58;;;;;;;4.37;2.13;;;15.30;57.30;;;;;;5016347;28;20449;-82
2023/05/19 02:19:29;;;;;;;4.60;2.40;;;15.30;57.50;;;;;;5034061;28;20453;-82
2023/05/19 02:21:56;;;;;;;5.20;2.03;;;15.30;57.80;;;;;;5034052;28;20511;-81
2023/05/19 02:24:23;;;;;;;3.63;1.90;;;15.20;57.30;;;;;;5033566;28;20460;-81
2023/05/19 02:26:51;;;;;;;2.83;1.93;;;15.20;57.40;;;;;;5033833;28;20493;-81
2023/05/19 02:29:17;;;;;;;2.80;2.17;;;15.20;57.70;;;;;;5033860;28;20477;-81
2023/05/19 02:31:44;;;;;;;5.73;2.20;;;15.20;57.70;;;;;;5033905;28;20457;-80
2023/05/19 02:34:11;;;;;;;5.73;2.33;;;15.20;57.70;;;;;;5033638;28;20487;-83
2023/05/19 02:36:42;;;;;;;2.47;2.10;;;15.20;57.80;;;;;;5033639;28;20536;-81
2023/05/19 02:39:09;;;;;;;3.73;2.00;;;15.20;57.70;;;;;;5034821;28;20448;-81
2023/05/19 02:41:36;;;;;;;3.57;2.23;;;15.10;57.90;;;;;;5033064;28;20461;-81
2023/05/19 02:44:03;;;;;;;3.27;1.77;;;15.10;57.70;;;;;;5033606;28;20459;-81
2023/05/19 02:46:30;;;;;;;4.13;2.20;;;15.10;58.00;;;;;;5033246;28;20984;-82
2023/05/19 02:48:57;;;;;;;4.83;2.47;;;15.10;57.70;;;;;;5033694;28;20856;-82
2023/05/19 02:51:24;;;;;;;3.47;2.40;;;15.00;57.60;;;;;;5032945;28;20517;-82
2023/05/19 02:53:52;;;;;;;4.47;2.00;;;15.00;57.70;;;;;;5033391;28;20414;-82
2023/05/19 02:56:20;;;;;;;3.23;2.23;;;15.00;58.00;;;;;;5033471;28;20457;-81
2023/05/19 02:58:47;;;;;;;3.70;2.60;;;15.00;57.90;;;;;;5033723;28;20526;-82
2023/05/19 03:01:13;;;;;;;4.10;2.30;;;15.00;58.00;;;;;;5033277;28;21108;-82
2023/05/19 03:03:40;;;;;;;2.73;1.90;;;15.10;58.20;;;;;;5033067;28;20564;-82
2023/05/19 03:06:08;;;;;;;4.90;2.57;;;15.00;58.30;;;;;;5049637;28;20484;-82
2023/05/19 03:08:35;;;;;;;4.37;2.30;;;15.00;58.30;;;;;;5033359;28;20899;-80
2023/05/19 03:11:03;;;;;;;4.70;2.60;;;14.90;58.30;;;;;;5033268;28;20449;-82
2023/05/19 03:13:30;;;;;;;4.17;2.33;;;14.90;58.40;;;;;;5033020;28;20487;-82
2023/05/19 03:15:58;;;;;;;4.80;1.90;;;14.90;58.60;;;;;;5033136;28;20425;-82
2023/05/19 03:18:25;;;;;;;4.43;2.20;;;14.90;58.60;;;;;;5033079;28;20453;-82
2023/05/19 03:20:53;;;;;;;4.23;2.50;;;14.90;58.80;;;;;;5015169;28;20465;-82
2023/05/19 03:23:21;;;;;;;4.90;2.20;;;14.80;58.80;;;;;;5032863;28;20453;-81
2023/05/19 03:25:47;;;;;;;4.10;2.77;;;14.80;58.90;;;;;;5032799;28;20493;-82
2023/05/19 03:28:16;;;;;;;5.93;2.33;;;14.80;58.80;;;;;;5033082;28;20437;-82
2023/05/19 03:30:43;;;;;;;4.83;2.30;;;14.80;59.10;;;;;;5032969;28;20453;-82
2023/05/19 03:33:09;;;;;;;6.10;2.60;;;14.70;59.00;;;;;;5032787;28;21006;-83
2023/05/19 03:35:36;;;;;;;3.87;2.23;;;14.80;59.20;;;;;;5033040;28;20453;-81
2023/05/19 03:38:03;;;;;;;2.73;2.33;;;14.70;59.30;;;;;;5032175;28;20508;-83
2023/05/19 03:40:30;;;;;;;5.87;2.30;;;14.70;59.30;;;;;;5032597;28;20764;-82
2023/05/19 03:42:57;;;;;;;3.47;2.27;;;14.70;59.30;;;;;;5032600;28;20468;-81
2023/05/19 03:45:25;;;;;;;3.60;2.20;;;14.70;59.60;;;;;;5033128;28;20565;-82
2023/05/19 03:47:52;;;;;;;4.83;2.20;;;14.60;59.90;;;;;;5032734;28;20540;-83
2023/05/19 03:50:20;;;;;;;5.73;3.00;;;14.60;59.90;;;;;;5033003;28;20460;-82
2023/05/19 03:52:47;;;;;;;6.57;2.40;;;14.50;59.90;;;;;;5033595;28;20567;-82
2023/05/19 03:55:15;;;;;;;2.60;2.40;;;14.50;60.10;;;;;;5035864;28;20521;-80
2023/05/19 03:57:42;;;;;;;6.17;2.63;;;14.50;60.20;;;;;;5036038;28;20544;-83
2023/05/19 04:00:11;;;;;;;4.60;2.43;;;14.50;60.40;;;;;;5036514;28;20477;-82
2023/05/19 04:02:39;;;;;;;5.13;2.60;;;14.50;60.70;;;;;;5037183;28;20933;-81
2023/05/19 04:05:07;;;;;;;4.27;2.70;;;14.40;60.50;;;;;;5018421;28;20445;-82
2023/05/19 04:07:34;;;;;;;5.03;2.73;;;14.50;60.70;;;;;;5035881;28;20488;-81
2023/05/19 04:10:02;;;;;;;4.40;2.63;;;14.40;60.90;;;;;;5036277;28;20950;-80
2023/05/19 04:12:30;;;;;;;4.73;2.50;;;14.40;61.00;;;;;;5035967;28;20481;-81
2023/05/19 04:14:57;;;;;;;4.80;2.90;;;14.40;61.20;;;;;;5036034;28;20465;-81
2023/05/19 04:17:25;;;;;;;4.40;2.70;;;14.40;61.10;;;;;;4997511;28;20551;-80
2023/05/19 04:19:53;;;;;;;4.50;2.80;;;14.40;61.40;;;;;;5035988;28;20876;-83
2023/05/19 04:22:20;;;;;;;4.77;2.83;;;14.40;61.40;;;;;;5035474;28;20938;-81
2023/05/19 04:24:47;;;;;;;3.77;2.33;;;14.40;61.40;;;;;;5035837;28;20473;-82
2023/05/19 04:27:14;;;;;;;4.73;3.10;;;14.40;61.40;;;;;;5036127;28;20492;-80
2023/05/19 04:29:41;;;;;;;4.97;3.00;;;14.40;61.40;;;;;;5035650;28;20572;-82
2023/05/19 04:32:09;;;;;;;5.13;2.90;;;14.40;61.40;;;;;;5036230;28;20532;-80
2023/05/19 04:34:39;;;;;;;4.47;2.70;;;14.40;61.60;;;;;;5035283;28;20481;-81
2023/05/19 04:37:08;;;;;;;4.57;2.90;;;14.40;61.60;;;;;;5035348;28;20442;-81
2023/05/19 04:39:37;;;;;;;4.20;2.90;;;14.50;61.90;;;;;;5036004;28;20507;-81
2023/05/19 04:42:04;;;;;;;3.93;2.73;;;14.50;61.90;;;;;;5035248;28;20544;-80
2023/05/19 04:44:32;;;;;;;3.87;2.50;;;14.50;61.90;;;;;;5035735;28;20536;-82
2023/05/19 04:46:59;;;;;;;5.67;2.67;;;14.50;62.90;;;;;;5035205;28;20493;-82
2023/05/19 04:49:26;;;;;;;4.97;2.50;;;14.50;62.50;;;;;;5035332;28;20463;-81
2023/05/19 04:51:53;;;;;;;4.60;3.03;;;14.50;62.50;;;;;;5035155;28;20504;-80
2023/05/19 04:54:21;;;;;;;4.33;3.10;;;14.60;62.70;;;;;;5035407;28;20464;-81
2023/05/19 04:56:48;;;;;;;5.00;2.63;;;14.60;62.90;;;;;;5035211;28;20544;-82
2023/05/19 04:59:15;;;;;;;6.60;3.23;;;14.60;62.90;;;;;;5035385;28;20813;-80
2023/05/19 05:01:42;;;;;;;5.30;2.97;;;14.60;63.00;;;;;;5035127;28;20493;-81
2023/05/19 05:04:09;;;;;;;5.00;2.87;;;14.70;63.80;;;;;;5034588;28;20556;-83
2023/05/19 05:06:39;;;;;;;4.53;2.80;;;14.70;62.90;;;;;;5034341;28;20535;-82
2023/05/19 05:09:06;;;;;;;5.00;2.80;;;14.70;62.90;;;;;;5035458;28;20473;-82
2023/05/19 05:11:35;;;;;;;3.17;2.67;;;14.80;63.20;;;;;;5035124;28;20817;-81
2023/05/19 05:14:02;;;;;;;3.87;2.90;;;14.80;63.20;;;;;;5015376;28;20462;-80
2023/05/19 05:16:30;;;;;;;3.77;2.30;;;14.80;62.90;;;;;;5014086;28;20584;-83
2023/05/19 05:18:58;;;;;;;6.57;3.20;;;14.80;62.80;;;;;;5016941;28;20475;-82
2023/05/19 05:21:26;;;;;;;6.63;3.10;;;14.90;63.00;;;;;;5034829;28;20477;-80
2023/05/19 05:23:53;;;;;;;4.00;2.70;;;14.90;62.90;;;;;;5034825;28;20533;-81
2023/05/19 05:26:22;;;;;;;5.13;2.90;;;15.00;63.20;;;;;;5034451;28;20499;-80
2023/05/19 05:28:50;;;;;;;5.93;2.90;;;15.00;63.20;;;;;;5034927;28;20454;-82
2023/05/19 05:31:17;;;;;;;5.77;2.87;;;15.00;63.20;;;;;;5034381;28;20458;-82
2023/05/19 05:33:45;;;;;;;4.77;2.70;;;15.10;63.20;;;;;;5034451;28;20544;-81
2023/05/19 05:36:12;;;;;;;5.77;3.37;;;15.10;63.10;;;;;;5034550;28;20556;-80
2023/05/19 05:38:39;;;;;;;5.40;2.80;;;15.20;62.90;;;;;;5034554;28;20485;-83
2023/05/19 05:41:06;;;;;;;4.87;2.83;;;15.20;63.60;;;;;;5034268;28;20457;-82
2023/05/19 05:43:33;;;;;;;5.00;2.90;;;15.20;62.70;;;;;;5034327;28;20963;-83
2023/05/19 05:46:01;;;;;;;3.93;2.90;;;15.30;62.80;;;;;;5034338;28;20555;-79
2023/05/19 05:48:29;;;;;;;4.33;2.80;;;15.40;63.90;;;;;;5033947;28;20454;-81
2023/05/19 05:50:57;;;;;;;4.47;2.80;;;15.40;63.10;;;;;;5034304;28;20554;-81
2023/05/19 05:53:25;;;;;;;4.67;3.00;;;15.40;62.70;;;;;;5034508;28;20460;-81
2023/05/19 05:55:53;;;;;;;9.23;3.20;;;15.50;62.60;;;;;;5034027;28;20472;-82
2023/05/19 05:58:21;;;;;;;4.63;2.93;;;15.50;62.20;;;;;;5034497;28;20476;-81
2023/05/19 06:00:48;;;;;;;4.70;3.13;;;15.60;62.20;;;;;;5018505;28;21024;-81
2023/05/19 06:03:16;;;;;;;6.27;3.50;;;15.60;62.60;;;;;;5033399;28;20481;-82
2023/05/19 06:05:45;;;;;;;5.87;3.30;;;15.70;62.50;;;;;;5033759;28;20945;-82
2023/05/19 06:08:11;;;;;;;4.60;3.13;;;15.70;62.90;;;;;;5033689;28;20492;-81
2023/05/19 06:10:40;;;;;;;7.90;2.90;;;15.80;62.60;;;;;;5033978;28;20569;-81
2023/05/19 06:13:07;;;;;;;5.33;2.83;;;15.80;62.30;;;;;;5034045;28;20556;-82
2023/05/19 06:15:34;;;;;;;4.90;3.07;;;15.90;62.20;;;;;;5032892;28;20465;-80
2023/05/19 06:18:01;;;;;;;4.13;2.83;;;16.00;62.30;;;;;;5033503;28;20544;-82
2023/05/19 06:20:30;;;;;;;4.43;2.90;;;16.00;62.00;;;;;;5033732;28;20462;-82
2023/05/19 06:22:57;;;;;;;3.83;2.97;;;16.10;61.70;;;;;;5033855;28;20544;-79
2023/05/19 06:25:24;;;;;;;3.80;2.87;;;16.20;61.60;;;;;;5032709;28;20567;-83
2023/05/19 06:27:51;;;;;;;4.00;2.90;;;16.20;61.40;;;;;;5033449;28;20493;-80
2023/05/19 06:30:18;;;;;;;3.63;2.70;;;16.30;61.10;;;;;;5032866;28;20945;-81
2023/05/19 06:32:45;;;;;;;4.60;2.47;;;16.40;61.20;;;;;;5015538;28;20850;-82
2023/05/19 06:35:12;;;;;;;4.53;2.37;;;16.40;60.90;;;;;;5033316;28;20464;-79
2023/05/19 06:37:41;;;;;;;5.80;2.50;;;16.50;61.00;;;;;;5033224;28;20630;-76
2023/05/19 06:40:09;;;;;;;5.23;2.70;;;16.60;61.10;;;;;;5032984;28;20460;-80
2023/05/19 06:42:36;;;;;;;4.03;2.60;;;16.70;61.10;;;;;;5032700;28;20500;-80
2023/05/19 06:45:02;;;;;;;5.57;2.67;;;16.70;61.00;;;;;;5033274;28;20544;-78
2023/05/19 06:47:29;;;;;;;7.07;2.60;;;16.80;61.10;;;;;;5032725;28;20556;-81
2023/05/19 06:49:56;;;;;;;4.13;2.60;;;16.80;60.70;;;;;;5033219;28;20524;-79
2023/05/19 06:52:25;;;;;;;3.33;2.23;;;16.90;60.40;;;;;;5033538;28;20532;-79
2023/05/19 06:54:53;;;;;;;5.27;2.57;;;17.00;60.40;;;;;;5033091;28;21041;-80
2023/05/19 06:57:20;;;;;;;3.17;2.27;;;17.10;59.80;;;;;;5033429;28;20499;-80
2023/05/19 06:59:47;;;;;;;4.13;2.13;;;17.20;59.60;;;;;;5033067;28;20985;-80
2023/05/19 07:02:14;;;;;;;3.10;2.10;;;17.20;59.40;;;;;;5033155;28;20532;-80
2023/05/19 07:04:41;;;;;;;4.13;2.20;;;17.40;59.50;;;;;;5033077;28;20484;-82
2023/05/19 07:07:08;;;;;;;2.50;1.90;;;17.50;59.20;;;;;;5032973;28;20572;-80
2023/05/19 07:09:35;;;;;;;4.27;2.20;;;17.50;59.00;;;;;;5013862;28;20456;-79
2023/05/19 07:12:04;;;;;;;3.07;1.97;;;17.60;58.80;;;;;;5024849;28;20568;-79
2023/05/19 07:14:31;;;;;;;3.47;2.10;;;17.70;58.50;;;;;;5032145;28;20547;-80
2023/05/19 07:16:58;;;;;;;7.07;2.20;;;17.80;58.50;;;;;;5014654;28;20484;-79
2023/05/19 07:19:25;;;;;;;3.60;2.10;;;17.90;57.80;;;;;;5032786;28;20511;-80
2023/05/19 07:21:53;;;;;;;4.47;2.30;;;18.00;57.80;;;;;;5033039;28;20450;-80
2023/05/19 07:24:21;;;;;;;3.50;2.40;;;18.00;57.80;;;;;;5032678;28;20457;-76
2023/05/19 07:26:47;;;;;;;5.60;2.00;;;18.10;57.30;;;;;;4999188;28;20481;-78
2023/05/19 07:29:16;;;;;;;5.23;2.53;;;18.30;57.50;;;;;;5036544;28;20554;-78
2023/05/19 07:31:43;;;;;;;3.43;1.97;;;18.30;56.80;;;;;;5036425;28;21023;-81
2023/05/19 07:34:10;;;;;;;5.57;2.57;;;18.40;56.70;;;;;;5036594;28;20555;-79
2023/05/19 07:36:37;;;;;;;4.73;2.40;;;18.50;56.30;;;;;;5019583;28;20481;-80
2023/05/19 07:39:04;;;;;;;4.00;2.20;;;18.60;56.40;;;;;;5037304;28;20814;-81
2023/05/19 07:41:31;;;;;;;7.40;2.50;;;18.70;56.60;;;;;;5054501;28;20547;-80
2023/05/19 07:43:58;;;;;;;3.70;2.17;;;18.80;56.30;;;;;;5056813;28;20868;-80
2023/05/19 07:46:26;;;;;;;5.60;2.50;;;18.90;56.30;;;;;;5056818;28;20551;-80
2023/05/19 07:48:53;;;;;;;4.93;2.47;;;19.00;56.20;;;;;;5057053;28;20452;-80
2023/05/19 07:51:20;;;;;;;2.80;1.80;;;19.10;56.30;;;;;;5053894;28;20939;-77
2023/05/19 07:53:47;;;;;;;4.90;2.30;;;19.20;56.10;;;;;;5036540;28;21003;-80
2023/05/19 07:56:14;;;;;;;4.33;2.30;;;19.30;55.80;;;;;;5019240;28;20457;-80
2023/05/19 07:58:41;;;;;;;5.43;2.87;;;19.30;55.90;;;;;;5018014;28;20257;-81
2023/05/19 08:01:08;;;;;;;6.03;2.20;;;19.40;55.60;;;;;;5036527;28;20260;-79
2023/05/19 08:03:36;;;;;;;4.73;2.17;;;19.50;55.70;;;;;;5001767;28;20313;-79
2023/05/19 08:06:03;;;;;;;3.77;2.00;;;19.60;55.20;;;;;;5036426;28;20700;-79
2023/05/19 08:08:32;;;;;;;6.00;2.63;;;19.70;55.00;;;;;;5036030;28;20234;-80
2023/05/19 08:11:02;;;;;;;5.63;2.43;;;19.80;55.30;;;;;;5019081;28;20242;-80
2023/05/19 08:13:30;;;;;;;5.03;2.10;;;19.90;55.20;;;;;;5035648;28;20449;-80
2023/05/19 08:15:58;;;;;;;6.47;2.23;;;20.00;54.70;;;;;;5036582;28;20605;-81
2023/05/19 08:18:25;;;;;;;4.43;2.40;;;20.10;54.70;;;;;;5018632;28;20654;-80
2023/05/19 08:20:54;;;;;;;5.07;2.30;;;20.20;54.30;;;;;;5035235;28;20317;-79
2023/05/19 08:23:21;;;;;;;9.03;2.50;;;20.30;53.60;;;;;;5035765;28;20244;-79
2023/05/19 08:25:48;;;;;;;5.77;2.43;;;20.30;53.60;;;;;;5035102;28;20234;-74
2023/05/19 08:28:15;;;;;;;6.97;2.40;;;20.50;53.90;;;;;;5034152;28;20244;-75
2023/05/19 08:30:42;;;;;;;5.67;2.30;;;20.60;53.10;;;;;;5034773;28;20294;-75
2023/05/19 08:33:09;;;;;;;5.73;2.63;;;20.70;53.20;;;;;;5034946;28;20202;-75
2023/05/19 08:35:36;;;;;;;5.97;2.10;;;20.80;52.90;;;;;;5034918;28;20207;-75
2023/05/19 08:38:06;;;;;;;5.00;2.37;;;20.90;52.30;;;;;;5034570;28;20219;-75
2023/05/19 08:40:34;;;;;;;5.43;2.10;;;21.00;53.40;;;;;;5035205;28;20535;-76
2023/05/19 08:43:01;;;;;;;6.17;2.37;;;21.10;53.20;;;;;;5017677;28;20226;-76
2023/05/19 08:45:28;;;;;;;3.23;2.00;;;21.20;53.30;;;;;;5055005;28;20296;-75
2023/05/19 08:47:56;;;;;;;4.27;2.40;;;21.30;53.00;;;;;;5053972;28;20221;-78
2023/05/19 08:50:30;;;;;;;3.67;2.40;;;21.30;52.10;;;;;;5015365;28;20202;-76
2023/05/19 08:53:04;;;;;;;6.60;2.43;;;21.30;52.20;;;;;;5035732;28;20202;-75
2023/05/19 08:55:36;;;;;;;5.70;3.07;;;21.40;51.90;;;;;;5034960;28;20282;-76
2023/05/19 08:58:04;;;;;;;5.13;2.40;;;21.50;51.80;;;;;;5033901;28;20293;-75
2023/05/19 09:00:32;;;;;;;4.60;2.30;;;21.60;50.70;;;;;;5034244;28;20230;-75
2023/05/19 09:03:00;;;;;;;4.13;2.30;;;21.60;50.90;;;;;;5016897;28;20629;-75
2023/05/19 09:05:27;;;;;;;5.30;2.40;;;21.70;50.50;;;;;;5034286;28;20229;-74
2023/05/19 09:07:54;;;;;;;5.83;2.53;;;21.80;50.60;;;;;;5034248;28;20234;-74
2023/05/19 09:10:21;;;;;;;4.20;2.47;;;21.90;50.70;;;;;;5034256;28;20210;-73
2023/05/19 09:12:50;;;;;;;7.47;2.97;;;22.00;50.70;;;;;;5033683;28;20226;-75
2023/05/19 09:15:18;;;;;;;7.03;3.10;;;22.10;49.40;;;;;;5035275;28;20253;-75
2023/05/19 09:17:46;;;;;;;4.07;2.27;;;22.20;49.90;;;;;;5054473;28;20257;-75
2023/05/19 09:20:15;;;;;;;5.97;2.37;;;22.30;50.10;;;;;;5054343;28;20206;-74
2023/05/19 09:22:44;;;;;;;5.10;2.37;;;22.40;49.40;;;;;;5049879;28;20293;-74
2023/05/19 09:25:20;;;;;;;3.40;2.20;;;22.50;49.00;;;;;;5034403;28;20242;-74
2023/05/19 09:27:49;;;;;;;3.17;2.47;;;22.60;49.10;;;;;;5033915;28;20225;-74
2023/05/19 09:30:17;;;;;;;4.50;2.33;;;22.70;48.20;;;;;;4998604;28;20632;-74
2023/05/19 09:32:45;;;;;;;4.03;2.10;;;22.80;47.90;;;;;;5033955;28;20214;-74
2023/05/19 09:35:12;;;;;;;5.63;2.30;;;22.90;47.20;;;;;;5033829;28;20225;-75
2023/05/19 09:37:40;;;;;;;5.63;2.30;;;22.90;48.10;;;;;;5016779;28;20206;-74
2023/05/19 09:40:09;;;;;;;5.70;2.67;;;23.00;47.60;;;;;;5033822;28;20195;-75
2023/05/19 09:42:38;;;;;;;4.30;2.53;;;23.10;45.90;;;;;;5033856;28;20301;-72
2023/05/19 09:45:07;;;;;;;4.53;2.50;;;23.20;46.10;;;;;;5033820;28;20317;-73
2023/05/19 09:47:36;;;;;;;5.10;2.40;;;23.30;45.90;;;;;;5033641;28;20574;-73
2023/05/19 09:50:07;;;;;;;4.40;2.20;;;23.40;46.10;;;;;;5033850;28;20662;-73
2023/05/19 09:52:36;;;;;;;6.33;2.17;;;23.50;46.30;;;;;;5033569;28;20271;-73
2023/05/19 09:55:04;;;;;;;6.67;2.33;;;23.50;46.00;;;;;;5033028;28;20213;-74
2023/05/19 09:57:35;;;;;;;4.53;1.90;;;23.50;45.80;;;;;;5033523;28;20303;-73
2023/05/19 10:00:10;;;;;;;4.17;1.93;;;23.60;46.10;;;;;;5033280;28;20674;-73
2023/05/19 10:02:42;;;;;;;4.33;2.27;;;23.60;46.30;;;;;;5033219;28;20209;-72
2023/05/19 10:05:12;;;;;;;4.77;2.33;;;23.70;45.70;;;;;;5033118;28;20216;-73
2023/05/19 10:07:40;;;;;;;5.07;2.30;;;23.70;45.00;;;;;;5033333;28;20720;-73
2023/05/19 10:10:12;;;;;;;4.07;2.40;;;23.70;45.20;;;;;;5032437;28;20228;-73
2023/05/19 10:12:39;;;;;;;3.47;1.90;;;23.80;45.40;;;;;;5036777;28;20210;-73
2023/05/19 10:15:09;;;;;;;3.70;2.03;;;23.90;45.30;;;;;;5033098;28;20224;-74
2023/05/19 10:17:38;;;;;;;4.73;2.53;;;23.90;45.10;;;;;;5033286;28;20636;-72
2023/05/19 10:20:09;;;;;;;5.17;2.17;;;24.00;44.90;;;;;;5033080;28;20242;-74
2023/05/19 10:22:36;;;;;;;3.07;2.23;;;24.10;44.80;;;;;;5032905;28;20222;-74
2023/05/19 10:25:03;;;;;;;3.87;2.00;;;24.20;44.00;;;;;;5032211;28;20240;-73
2023/05/19 10:27:31;;;;;;;4.77;2.30;;;24.30;44.40;;;;;;5032789;28;20258;-74
2023/05/19 10:30:01;;;;;;;3.73;2.30;;;24.50;44.60;;;;;;5032361;28;20208;-74
2023/05/19 10:32:31;;;;;;;4.83;2.50;;;24.60;45.60;;;;;;5015063;28;20733;-73
2023/05/19 10:35:22;;;;;;;5.63;2.47;;;24.80;44.20;;;;;;5032126;28;20261;-73
2023/05/19 10:37:57;;;;;;;4.03;2.20;;;24.70;42.50;;;;;;5032689;28;20320;-74
2023/05/19 10:40:28;;;;;;;4.80;2.20;;;24.80;43.50;;;;;;5032000;28;20213;-74
2023/05/19 10:43:11;;;;;;;4.73;2.67;;;24.80;43.80;;;;;;5031267;28;20212;-73
2023/05/19 10:45:46;;;;;;;3.90;2.20;;;24.90;43.50;;;;;;5032551;28;20205;-73
2023/05/19 10:48:15;;;;;;;5.03;2.83;;;24.90;43.60;;;;;;5032374;28;20220;-73
2023/05/19 10:50:46;;;;;;;4.93;2.47;;;24.90;43.60;;;;;;5031784;28;20574;-73
2023/05/19 10:53:18;;;;;;;5.30;2.23;;;25.00;43.60;;;;;;5031464;28;20202;-74
2023/05/19 10:55:46;;;;;;;3.70;2.30;;;25.00;42.70;;;;;;5032248;28;20242;-74
2023/05/19 10:58:13;;;;;;;2.73;2.37;;;25.00;42.90;;;;;;5031883;28;20206;-73
2023/05/19 11:00:41;;;;;;;2.80;2.10;;;24.90;43.30;;;;;;5031655;28;20198;-73
2023/05/19 11:03:15;;;;;;;3.10;2.33;;;24.80;44.10;;;;;;5030924;28;20226;-72
2023/05/19 11:05:44;;;;;;;5.03;2.57;;;24.90;44.30;;;;;;5031372;28;20213;-73
2023/05/19 11:08:12;;;;;;;7.03;2.50;;;24.90;44.00;;;;;;5030962;28;20218;-73
2023/05/19 11:10:43;;;;;;;4.97;2.30;;;24.90;44.00;;;;;;5030985;28;20241;-72
2023/05/19 11:13:19;;;;;;;4.73;2.47;;;24.90;43.10;;;;;;5032171;28;20226;-72
2023/05/19 11:15:46;;;;;;;3.57;2.13;;;24.90;44.10;;;;;;5031506;28;20256;-73
2023/05/19 11:18:15;;;;;;;5.47;2.13;;;24.90;44.10;;;;;;5013207;28;20213;-73
2023/05/19 11:20:43;;;;;;;4.47;2.20;;;24.90;44.20;;;;;;5031487;28;20202;-73
2023/05/19 11:23:16;;;;;;;4.13;2.43;;;24.90;44.00;;;;;;5031543;28;20241;-73
2023/05/19 11:25:45;;;;;;;3.30;2.27;;;24.90;43.30;;;;;;5031571;28;20222;-73
2023/05/19 11:28:13;;;;;;;4.93;2.13;;;24.90;43.50;;;;;;5031702;28;20230;-72
2023/05/19 11:30:43;;;;;;;4.50;2.40;;;25.10;44.40;;;;;;5031649;28;20229;-72
2023/05/19 11:33:10;;;;;;;4.77;2.27;;;25.10;44.40;;;;;;5031791;28;20202;-72
2023/05/19 11:35:38;;;;;;;2.30;1.97;;;25.20;43.70;;;;;;5031417;28;20573;-73
2023/05/19 11:38:06;;;;;;;3.57;2.17;;;25.20;43.50;;;;;;5013955;28;20194;-72
2023/05/19 11:40:34;;;;;;;4.17;2.27;;;25.30;43.60;;;;;;5031505;28;20248;-73
2023/05/19 11:43:01;;;;;;;4.97;2.27;;;25.20;43.40;;;;;;5031563;28;20213;-73
2023/05/19 11:45:30;;;;;;;3.10;1.90;;;25.10;43.40;;;;;;5031347;28;20217;-72
2023/05/19 11:47:58;;;;;;;3.03;2.03;;;25.00;43.40;;;;;;5031309;28;20226;-72
2023/05/19 11:50:26;;;;;;;3.13;1.60;;;24.90;44.10;;;;;;5031027;28;20209;-73
2023/05/19 11:52:54;;;;;;;2.90;1.90;;;24.80;43.90;;;;;;5031064;28;20325;-73
2023/05/19 11:55:22;;;;;;;2.90;1.90;;;24.70;44.10;;;;;;5030902;28;20556;-73
2023/05/19 11:57:58;;;;;;;3.17;2.40;;;24.60;44.00;;;;;;5031200;28;20727;-73
2023/05/19 12:00:25;;;;;;;3.77;2.27;;;24.60;44.10;;;;;;5031729;28;20664;-73
2023/05/19 12:02:52;;;;;;;4.50;2.50;;;24.50;44.20;;;;;;5030754;28;20729;-72
2023/05/19 12:05:21;;;;;;;1.77;1.60;;;24.50;45.10;;;;;;5030942;28;20229;-72
2023/05/19 12:07:50;;;;;;;3.03;1.97;;;24.50;44.40;;;;;;4995869;28;20198;-77
2023/05/19 12:10:18;;;;;;;5.37;2.00;;;24.40;44.10;;;;;;5034181;28;20197;-79
2023/05/19 12:12:45;;;;;;;3.00;2.03;;;24.40;44.50;;;;;;5034420;28;20215;-75
2023/05/19 12:15:15;;;;;;;4.83;2.60;;;24.40;44.40;;;;;;5035831;28;20304;-80
2023/05/19 12:17:42;;;;;;;2.90;2.10;;;24.40;43.70;;;;;;5035272;28;20313;-74
2023/05/19 12:20:10;;;;;;;3.30;2.27;;;24.20;44.20;;;;;;4999305;28;20294;-75
2023/05/19 12:22:38;;;;;;;4.77;2.40;;;24.10;44.00;;;;;;5034537;28;20252;-75
2023/05/19 12:25:05;;;;;;;6.27;2.20;;;24.00;45.00;;;;;;5026630;28;20249;-77
2023/05/19 12:27:36;;;;;;;3.67;2.20;;;24.00;45.40;;;;;;5026304;28;20194;-74
2023/05/19 12:30:04;;;;;;;4.33;2.23;;;23.90;44.90;;;;;;5034206;28;20713;-73
2023/05/19 12:32:34;;;;;;;5.17;2.37;;;23.80;45.80;;;;;;5034541;28;20253;-76
2023/05/19 12:35:03;;;;;;;3.60;1.90;;;23.70;46.40;;;;;;5033066;28;20235;-75
2023/05/19 12:37:30;;;;;;;4.67;2.10;;;23.70;46.50;;;;;;5034794;28;20597;-76
2023/05/19 12:39:57;;;;;;;3.03;2.10;;;23.60;46.10;;;;;;5035160;28;20546;-78
2023/05/19 12:42:29;;;;;;;3.27;2.30;;;23.50;46.00;;;;;;5034094;28;20234;-75
2023/05/19 12:44:58;;;;;;;3.50;2.20;;;23.50;45.80;;;;;;5034285;28;20289;-77
2023/05/19 12:47:32;;;;;;;6.70;2.43;;;23.50;45.50;;;;;;5035027;28;20257;-75
2023/05/19 12:50:03;;;;;;;4.67;2.33;;;23.30;45.40;;;;;;5034705;28;20213;-76
2023/05/19 12:52:34;;;;;;;3.53;2.20;;;23.20;46.10;;;;;;5034571;28;20314;-76
2023/05/19 12:55:03;;;;;;;7.07;2.27;;;23.20;46.50;;;;;;5034397;28;20226;-76